April Moran — WDJ2163 — position and weather

sailwx.info

Track history (hours):
 
Tides and Currents Weather Stations Pressure Air Temp Water Temp Dewpoint Dewpoint Depression Visibility Wind Speed Wind Dir Waves Ship Positions

April Moran

Owner: Moran Towing Corporation, New Canaan, CT. More information available from US FCC via Universal Licensing System and Coast Guard Vessel Documentation Center.

Last reported at 2017-Dec-11 17:00 UTC. Time now 2017-Dec-12 02:52 UTC.
Position N 39°15' W 076°33'.

Length 29 m; draft 3.9 m.

Type: Tug. MMSI: 367139510.

Date/timePositionNaut miles runAvg speedWind from/ knotsBaromVisibWave heightAir tempDewpointWater temp
2017-Dec-11 17:00N 39°15' W 076°33'2 3.2
2017-Dec-11 16:30N 39°13' W 076°35'0 0.0
2017-Dec-11 16:00N 39°13' W 076°35'1 1.0
2017-Dec-11 15:26N 39°13' W 076°34'2 3.8
2017-Dec-11 15:00N 39°13' W 076°32'1 2.3
2017-Dec-11 14:27N 39°14' W 076°32'0 0.0
2017-Dec-11 14:00N 39°14' W 076°32'0 0.0
2017-Dec-11 13:30N 39°14' W 076°32'0 0.0
2017-Dec-11 13:00N 39°14' W 076°32'2 3.5
2017-Dec-11 12:28N 39°13' W 076°34'0 0.5
2017-Dec-11 11:37N 39°13' W 076°35'1 5.4
2017-Dec-11 11:30N 39°13' W 076°34'2 3.6
2017-Dec-11 11:00N 39°14' W 076°32'0 0.0
2017-Dec-11 10:30N 39°14' W 076°32'0 0.0
2017-Dec-11 10:00N 39°14' W 076°32'0 0.0
2017-Dec-11 09:30N 39°14' W 076°32'0 0.0
2017-Dec-11 08:17N 39°14' W 076°32'0 0.0
2017-Dec-11 08:00N 39°14' W 076°32'0 0.0
2017-Dec-11 07:05N 39°14' W 076°32'1 5.5
2017-Dec-11 06:59N 39°14' W 076°33'1 1.8
2017-Dec-11 06:29N 39°15' W 076°32'0 0.1
2017-Dec-11 06:00N 39°15' W 076°32'0 0.0
2017-Dec-11 05:30N 39°15' W 076°32'0 0.0
2017-Dec-11 05:00N 39°15' W 076°32'4 8.0
2017-Dec-11 04:30N 39°12' W 076°29'0 1.0
2017-Dec-11 03:59N 39°12' W 076°29'2 3.4
2017-Dec-11 03:30N 39°11' W 076°28'3 4.0
2017-Dec-11 02:52N 39°12' W 076°31'3 7.7
2017-Dec-11 02:30N 39°14' W 076°33'2 3.9
2017-Dec-11 02:00N 39°16' W 076°34'0 0.0
2017-Dec-11 01:30N 39°16' W 076°34'0 0.0
2017-Dec-11 01:00N 39°16' W 076°34'0 0.0
2017-Dec-11 00:30N 39°16' W 076°34'0 0.0
2017-Dec-11 00:00N 39°16' W 076°34'0 0.0
2017-Dec-10 23:30N 39°16' W 076°34'0 0.0
2017-Dec-10 23:00N 39°16' W 076°34'0 0.0
2017-Dec-10 22:30N 39°16' W 076°34'1 1.3
2017-Dec-10 22:00N 39°15' W 076°34'1 2.8
2017-Dec-10 21:30N 39°15' W 076°32'2 3.2
2017-Dec-10 21:01N 39°13' W 076°32'1 2.0
2017-Dec-10 20:30N 39°14' W 076°32'0 0.6
2017-Dec-10 20:00N 39°14' W 076°32'0 0.0
2017-Dec-10 19:30N 39°14' W 076°32'1 1.4
2017-Dec-10 19:00N 39°15' W 076°32'2 4.3
2017-Dec-10 18:30N 39°13' W 076°32'3 6.6
2017-Dec-10 18:01N 39°16' W 076°34'0 0.7
2017-Dec-10 17:31N 39°16' W 076°34'0 0.0
2017-Dec-10 17:00N 39°16' W 076°34'0 0.0
2017-Dec-10 16:30N 39°16' W 076°34'0 0.0
2017-Dec-10 16:00N 39°16' W 076°34'0 0.0
2017-Dec-10 15:30N 39°16' W 076°34'0 0.0
2017-Dec-10 15:00N 39°16' W 076°34'0 0.0
2017-Dec-10 14:31N 39°16' W 076°34'0 0.0
2017-Dec-10 14:00N 39°16' W 076°34'0 0.0
2017-Dec-10 13:31N 39°16' W 076°34'0 0.0
2017-Dec-10 13:01N 39°16' W 076°34'0 0.0
2017-Dec-10 12:30N 39°16' W 076°34'0 0.0
2017-Dec-10 12:01N 39°16' W 076°34'0 0.0
2017-Dec-10 11:31N 39°16' W 076°34'0 0.0
2017-Dec-10 11:01N 39°16' W 076°34'0 0.0
2017-Dec-10 10:30N 39°16' W 076°34'0 0.0
2017-Dec-10 10:01N 39°16' W 076°34'1 2.4
2017-Dec-10 09:31N 39°15' W 076°33'0 0.2
2017-Dec-10 08:59N 39°15' W 076°33'0 0.0
2017-Dec-10 08:31N 39°15' W 076°33'0 0.2
2017-Dec-10 08:00N 39°15' W 076°33'0 0.0
2017-Dec-10 07:31N 39°15' W 076°33'0 0.0
2017-Dec-10 07:01N 39°15' W 076°33'0 0.0
2017-Dec-10 06:31N 39°15' W 076°33'1 1.6
2017-Dec-10 06:00N 39°15' W 076°34'1 1.1
2017-Dec-10 05:30N 39°15' W 076°34'0 0.7
2017-Dec-10 05:00N 39°15' W 076°34'0 0.7
2017-Dec-10 04:30N 39°16' W 076°34'0 0.4
2017-Dec-10 04:00N 39°15' W 076°34'0 0.0
2017-Dec-10 03:30N 39°15' W 076°34'0 0.0
2017-Dec-10 03:00N 39°15' W 076°34'0 0.0
2017-Dec-10 02:30N 39°15' W 076°34'0 0.0
2017-Dec-10 02:00N 39°15' W 076°34'0 0.0
2017-Dec-10 01:30N 39°15' W 076°34'0 0.0
2017-Dec-10 01:00N 39°15' W 076°34'1 2.7
2017-Dec-10 00:29N 39°14' W 076°33'1 1.2
2017-Dec-09 23:59N 39°15' W 076°32'0 0.7
2017-Dec-09 23:30N 39°15' W 076°33'1 2.8
2017-Dec-09 23:01N 39°16' W 076°34'0 0.0
2017-Dec-09 22:30N 39°16' W 076°34'0 0.0
2017-Dec-09 22:00N 39°16' W 076°34'0 0.0
2017-Dec-09 21:31N 39°16' W 076°34'0 0.0
2017-Dec-09 21:00N 39°16' W 076°34'0 0.0
2017-Dec-09 20:31N 39°16' W 076°34'0 0.0
2017-Dec-09 20:00N 39°16' W 076°34'0 0.0
2017-Dec-09 19:31N 39°16' W 076°34'0 0.0
2017-Dec-09 19:00N 39°16' W 076°34'0 0.0
2017-Dec-09 18:31N 39°16' W 076°34'0 0.0
2017-Dec-09 18:00N 39°16' W 076°34'0 0.0
2017-Dec-09 17:30N 39°16' W 076°34'0 0.2
2017-Dec-09 17:00N 39°16' W 076°34'1 2.8
2017-Dec-09 16:30N 39°15' W 076°33'1 2.0
2017-Dec-09 16:00N 39°14' W 076°33'0 0.4
2017-Dec-09 15:31N 39°14' W 076°33'1 1.4
2017-Dec-09 15:01N 39°15' W 076°32'2 4.0
2017-Dec-09 14:30N 39°13' W 076°31'2 2.4
2017-Dec-09 13:42N 39°13' W 076°29'0 0.6
2017-Dec-09 13:25N 39°13' W 076°29'1 2.4
2017-Dec-09 12:59N 39°12' W 076°29'1 2.5
2017-Dec-09 12:28N 39°11' W 076°27'3 4.6
2017-Dec-09 11:54N 39°12' W 076°30'3 6.5
2017-Dec-09 11:29N 39°14' W 076°32'1 2.4
2017-Dec-09 11:00N 39°15' W 076°33'1 2.7
2017-Dec-09 10:30N 39°14' W 076°33'1 2.3
2017-Dec-09 10:00N 39°13' W 076°32'1 2.3
2017-Dec-09 09:24N 39°14' W 076°32'0 0.0
2017-Dec-09 09:00N 39°14' W 076°32'0 0.0
2017-Dec-09 08:06N 39°14' W 076°32'0 0.0
2017-Dec-09 07:59N 39°14' W 076°32'0 0.0
2017-Dec-09 04:19N 39°14' W 076°32'1 2.7
2017-Dec-09 04:00N 39°14' W 076°33'2 2.7
2017-Dec-09 03:26N 39°13' W 076°35'0 0.3
2017-Dec-09 02:58N 39°13' W 076°35'2 4.2
2017-Dec-09 02:27N 39°13' W 076°32'0 1.0
2017-Dec-09 02:00N 39°13' W 076°32'3 5.9
2017-Dec-09 01:31N 39°16' W 076°34'0 0.0
2017-Dec-09 01:01N 39°16' W 076°34'0 0.0
2017-Dec-09 00:30N 39°16' W 076°34'0 0.0
2017-Dec-09 00:01N 39°16' W 076°34'2 4.1
2017-Dec-08 23:31N 39°14' W 076°33'1 1.9
2017-Dec-08 22:58N 39°15' W 076°32'0 0.2
2017-Dec-08 22:30N 39°15' W 076°32'0 0.0
2017-Dec-08 22:01N 39°15' W 076°32'0 0.0
2017-Dec-08 21:29N 39°15' W 076°32'2 3.5
2017-Dec-08 21:00N 39°16' W 076°34'0 0.0
2017-Dec-08 20:31N 39°16' W 076°34'0 0.0
2017-Dec-08 20:00N 39°16' W 076°34'0 0.6
2017-Dec-08 19:30N 39°16' W 076°34'0 0.0
2017-Dec-08 19:00N 39°16' W 076°34'0 0.0
2017-Dec-08 18:31N 39°16' W 076°34'0 0.0
2017-Dec-08 18:01N 39°16' W 076°34'0 0.0
2017-Dec-08 17:30N 39°16' W 076°34'0 0.0
2017-Dec-08 17:00N 39°16' W 076°34'0 0.0
2017-Dec-08 16:30N 39°16' W 076°34'0 0.0
2017-Dec-08 16:01N 39°16' W 076°34'0 0.0
2017-Dec-08 15:31N 39°16' W 076°34'0 0.0
2017-Dec-08 15:00N 39°16' W 076°34'1 1.8
2017-Dec-08 14:31N 39°15' W 076°34'2 3.2
2017-Dec-08 14:01N 39°14' W 076°32'1 1.6
2017-Dec-08 13:30N 39°13' W 076°32'3 6.3
2017-Dec-08 13:00N 39°16' W 076°34'0 0.4
2017-Dec-08 12:30N 39°16' W 076°34'0 0.0
2017-Dec-08 12:01N 39°16' W 076°34'0 0.0
2017-Dec-08 11:31N 39°16' W 076°34'0 0.0
2017-Dec-08 11:00N 39°16' W 076°34'0 0.0
2017-Dec-08 10:31N 39°16' W 076°34'0 0.0
2017-Dec-08 10:01N 39°16' W 076°34'2 3.1
2017-Dec-08 09:30N 39°15' W 076°33'1 1.4
2017-Dec-08 09:01N 39°14' W 076°33'1 2.8
2017-Dec-08 08:31N 39°13' W 076°32'1 1.0
2017-Dec-08 07:14N 39°14' W 076°32'0 0.0
2017-Dec-08 06:56N 39°14' W 076°32'0 0.0
2017-Dec-08 06:29N 39°14' W 076°32'0 0.0
2017-Dec-08 06:00N 39°14' W 076°32'0 0.0
2017-Dec-08 05:30N 39°14' W 076°32'0 0.0
2017-Dec-08 04:59N 39°14' W 076°32'2 4.0
2017-Dec-08 04:30N 39°16' W 076°34'0 0.2
2017-Dec-08 04:00N 39°15' W 076°34'2 3.3
2017-Dec-08 03:31N 39°14' W 076°33'1 1.4
2017-Dec-08 03:01N 39°14' W 076°32'0 0.0
2017-Dec-08 02:31N 39°14' W 076°32'0 0.0
2017-Dec-08 02:00N 39°14' W 076°32'2 3.6
2017-Dec-08 01:31N 39°15' W 076°34'0 0.3
2017-Dec-08 01:00N 39°15' W 076°34'0 0.2
2017-Dec-08 00:31N 39°15' W 076°34'1 1.3
2017-Dec-08 00:00N 39°16' W 076°34'0 0.0
2017-Dec-07 23:30N 39°16' W 076°34'0 0.0
2017-Dec-07 23:00N 39°16' W 076°34'0 0.0
2017-Dec-07 22:30N 39°16' W 076°34'0 0.0
2017-Dec-07 22:00N 39°16' W 076°34'0 0.0
2017-Dec-07 21:31N 39°16' W 076°34'0 0.0
2017-Dec-07 21:00N 39°16' W 076°34'1 1.2
2017-Dec-07 20:31N 39°15' W 076°34'2 3.9
2017-Dec-07 19:59N 39°13' W 076°35'0 0.1
2017-Dec-07 19:30N 39°13' W 076°35'2 3.6
2017-Dec-07 19:00N 39°13' W 076°32'2 3.5
2017-Dec-07 18:30N 39°13' W 076°34'0 0.3
2017-Dec-07 18:00N 39°13' W 076°34'2 3.4
2017-Dec-07 17:31N 39°14' W 076°32'2 3.9
2017-Dec-07 17:00N 39°15' W 076°34'1 1.7
2017-Dec-07 16:30N 39°16' W 076°34'0 0.3
2017-Dec-07 16:00N 39°16' W 076°34'0 0.0
2017-Dec-07 15:31N 39°16' W 076°34'0 0.0
2017-Dec-07 15:01N 39°16' W 076°34'0 0.0
2017-Dec-07 14:31N 39°16' W 076°34'0 0.0
2017-Dec-07 14:01N 39°16' W 076°34'0 0.0
2017-Dec-07 13:31N 39°16' W 076°34'0 0.0
2017-Dec-07 13:01N 39°16' W 076°34'0 0.0
2017-Dec-07 12:31N 39°16' W 076°34'0 0.0
2017-Dec-07 12:00N 39°16' W 076°34'0 0.0
2017-Dec-07 11:31N 39°16' W 076°34'0 0.0
2017-Dec-07 11:00N 39°16' W 076°34'0 0.0
2017-Dec-07 10:30N 39°16' W 076°34'0 0.0
2017-Dec-07 10:00N 39°16' W 076°34'0 0.0
2017-Dec-07 09:30N 39°16' W 076°34'0 0.0
2017-Dec-07 09:01N 39°16' W 076°34'0 0.0
2017-Dec-07 08:31N 39°16' W 076°34'0 0.0
2017-Dec-07 08:01N 39°16' W 076°34'0 0.0
2017-Dec-07 07:31N 39°16' W 076°34'0 0.0
2017-Dec-07 07:01N 39°16' W 076°34'0 0.0
2017-Dec-07 06:31N 39°16' W 076°34'0 0.0
2017-Dec-07 06:00N 39°16' W 076°34'0 0.0
2017-Dec-07 05:30N 39°16' W 076°34'0 0.0
2017-Dec-07 05:00N 39°16' W 076°34'0 0.0
2017-Dec-07 04:31N 39°16' W 076°34'0 0.0
2017-Dec-07 04:01N 39°16' W 076°34'0 0.0
2017-Dec-07 03:30N 39°16' W 076°34'0 0.0
2017-Dec-07 03:00N 39°16' W 076°34'0 0.0
2017-Dec-07 02:30N 39°16' W 076°34'0 0.0
2017-Dec-07 02:01N 39°16' W 076°34'0 0.0
2017-Dec-07 01:30N 39°16' W 076°34'0 0.0
2017-Dec-07 01:01N 39°16' W 076°34'0 0.0
2017-Dec-07 00:30N 39°16' W 076°34'0 0.0
2017-Dec-07 00:01N 39°16' W 076°34'1 2.0
2017-Dec-06 23:31N 39°15' W 076°34'0 0.9
2017-Dec-06 23:00N 39°15' W 076°34'0 1.0
2017-Dec-06 22:30N 39°15' W 076°34'1 1.9
2017-Dec-06 22:00N 39°16' W 076°34'0 0.0
2017-Dec-06 21:30N 39°16' W 076°34'0 0.0
2017-Dec-06 21:00N 39°16' W 076°34'  
2017-Dec-04 10:30N 39°16' W 076°34'1 2.9
2017-Dec-04 10:00N 39°15' W 076°33'2 3.0
2017-Dec-04 09:30N 39°13' W 076°32'3 6.0
2017-Dec-04 09:00N 39°16' W 076°34'0 0.0
2017-Dec-04 08:30N 39°16' W 076°34'0 0.0
2017-Dec-04 08:00N 39°16' W 076°34'0 0.0
2017-Dec-04 07:27N 39°16' W 076°34'0 0.0
2017-Dec-04 07:00N 39°16' W 076°34'0 0.0
2017-Dec-04 06:30N 39°16' W 076°34'0 0.0
2017-Dec-04 06:00N 39°16' W 076°34'0 0.0
2017-Dec-04 05:30N 39°16' W 076°34'0 0.0
2017-Dec-04 05:00N 39°16' W 076°34'0 0.0
2017-Dec-04 04:30N 39°16' W 076°34'0 0.0
2017-Dec-04 04:00N 39°16' W 076°34'0 0.0
2017-Dec-04 03:30N 39°16' W 076°34'0 0.0
2017-Dec-04 03:00N 39°16' W 076°34'0 0.0
2017-Dec-04 02:30N 39°16' W 076°34'0 0.0
2017-Dec-04 02:00N 39°16' W 076°34'0 0.0
2017-Dec-04 01:30N 39°16' W 076°34'0 0.0
2017-Dec-04 01:00N 39°16' W 076°34'0 0.0
2017-Dec-04 00:30N 39°16' W 076°34'0 0.0
2017-Dec-04 00:00N 39°16' W 076°34'0 0.0
2017-Dec-03 23:30N 39°16' W 076°34'0 0.0
2017-Dec-03 23:00N 39°16' W 076°34'0 0.0
2017-Dec-03 22:30N 39°16' W 076°34'0 0.0
2017-Dec-03 22:00N 39°16' W 076°34'0 0.0
2017-Dec-03 21:30N 39°16' W 076°34'2 3.7
2017-Dec-03 21:00N 39°15' W 076°32'2 3.7
2017-Dec-03 20:30N 39°16' W 076°34'0 0.0
2017-Dec-03 20:00N 39°16' W 076°34'0 0.0
2017-Dec-03 19:30N 39°16' W 076°34'0 0.0
2017-Dec-03 19:00N 39°16' W 076°34'0 0.9
2017-Dec-03 18:30N 39°15' W 076°34'0 0.8
2017-Dec-03 18:00N 39°15' W 076°35'1 2.0
2017-Dec-03 17:30N 39°15' W 076°34'1 1.8
2017-Dec-03 17:00N 39°15' W 076°34'1 1.1
2017-Dec-03 16:30N 39°16' W 076°34'0 0.0
2017-Dec-03 16:00N 39°16' W 076°34'0 0.0
2017-Dec-03 15:30N 39°16' W 076°34'0 0.0
2017-Dec-03 15:00N 39°16' W 076°34'0 0.0
2017-Dec-03 14:30N 39°16' W 076°34'0 0.0
2017-Dec-03 14:00N 39°16' W 076°34'0 0.0
2017-Dec-03 13:30N 39°16' W 076°34'0 0.0
2017-Dec-03 13:00N 39°16' W 076°34'0 0.0
2017-Dec-03 12:30N 39°16' W 076°34'0 0.0
2017-Dec-03 12:00N 39°16' W 076°34'0 0.0
2017-Dec-03 11:30N 39°16' W 076°34'0 0.0
2017-Dec-03 11:00N 39°16' W 076°34'0 0.0
2017-Dec-03 10:30N 39°16' W 076°34'0 0.0
2017-Dec-03 10:00N 39°16' W 076°34'1 2.8
2017-Dec-03 09:30N 39°15' W 076°34'1 1.1
2017-Dec-03 09:00N 39°15' W 076°33'1 1.9
2017-Dec-03 08:30N 39°14' W 076°33'3 5.2
2017-Dec-03 08:00N 39°16' W 076°34'0 0.0
2017-Dec-03 07:30N 39°16' W 076°34'0 0.0
2017-Dec-03 07:00N 39°16' W 076°34'0 0.0
2017-Dec-03 06:30N 39°16' W 076°34'0 0.0
2017-Dec-03 06:00N 39°16' W 076°34'0 0.0
2017-Dec-03 05:30N 39°16' W 076°34'0 0.0
2017-Dec-03 05:00N 39°16' W 076°34'0 0.0
2017-Dec-03 04:30N 39°16' W 076°34'0 0.0
2017-Dec-03 04:00N 39°16' W 076°34'0 0.0
2017-Dec-03 03:30N 39°16' W 076°34'0 0.0
2017-Dec-03 03:00N 39°16' W 076°34'0 0.0
2017-Dec-03 02:30N 39°16' W 076°34'0 0.0
2017-Dec-03 02:00N 39°16' W 076°34'0 0.0
2017-Dec-03 01:30N 39°16' W 076°34'0 0.9
2017-Dec-03 01:00N 39°15' W 076°34'2 3.3
2017-Dec-03 00:31N 39°15' W 076°32'1 1.5
2017-Dec-03 00:00N 39°14' W 076°32'1 1.1
2017-Dec-02 23:30N 39°14' W 076°32'0 0.0
2017-Dec-02 23:00N 39°14' W 076°32'0 0.0
2017-Dec-02 22:30N 39°14' W 076°32'1 2.1
2017-Dec-02 22:00N 39°15' W 076°33'0 0.1
2017-Dec-02 21:30N 39°15' W 076°33'0 0.0
2017-Dec-02 21:00N 39°15' W 076°33'0 0.0
2017-Dec-02 20:30N 39°15' W 076°33'1 2.8
2017-Dec-02 20:00N 39°15' W 076°35'1 2.0
2017-Dec-02 19:30N 39°16' W 076°34'0 0.0
2017-Dec-02 19:00N 39°16' W 076°34'0 0.0
2017-Dec-02 18:30N 39°16' W 076°34'2 3.6
2017-Dec-02 18:01N 39°15' W 076°32'0 0.8
2017-Dec-02 17:30N 39°15' W 076°33'1 1.9
2017-Dec-02 17:00N 39°15' W 076°34'1 1.2
2017-Dec-02 16:30N 39°15' W 076°34'1 2.1
2017-Dec-02 16:00N 39°14' W 076°33'2 4.3
2017-Dec-02 15:31N 39°16' W 076°34'0 0.0
2017-Dec-02 15:00N 39°16' W 076°34'0 0.0
2017-Dec-02 14:31N 39°16' W 076°34'0 0.0
2017-Dec-02 14:00N 39°16' W 076°34'0 0.0
2017-Dec-02 13:30N 39°16' W 076°34'0 0.0
2017-Dec-02 13:00N 39°16' W 076°34'0 0.0
2017-Dec-02 12:31N 39°16' W 076°34'0 0.0
2017-Dec-02 12:00N 39°16' W 076°34'0 0.0
2017-Dec-02 11:30N 39°16' W 076°34'0 0.0
2017-Dec-02 11:00N 39°16' W 076°34'0 0.8
2017-Dec-02 10:31N 39°15' W 076°34'2 3.1
2017-Dec-02 10:00N 39°15' W 076°32'0 0.7
2017-Dec-02 09:25N 39°15' W 076°33'1 2.8
2017-Dec-02 09:00N 39°14' W 076°32'0 0.9
2017-Dec-02 08:31N 39°14' W 076°32'0 0.0
2017-Dec-02 08:00N 39°14' W 076°32'0 0.0
2017-Dec-02 07:30N 39°14' W 076°32'1 2.0
2017-Dec-02 07:00N 39°15' W 076°33'0 0.9
2017-Dec-02 06:28N 39°15' W 076°33'0 0.6
2017-Dec-02 06:01N 39°15' W 076°34'1 2.0
2017-Dec-02 05:30N 39°15' W 076°32'1 2.4
2017-Dec-02 04:57N 39°14' W 076°32'1 2.1
2017-Dec-02 04:30N 39°14' W 076°32'0 0.0
2017-Dec-02 04:00N 39°14' W 076°32'1 1.1
2017-Dec-02 03:30N 39°15' W 076°33'1 3.0
2017-Dec-02 03:00N 39°15' W 076°34'1 1.7
2017-Dec-02 02:31N 39°15' W 076°34'1 1.7
2017-Dec-02 01:58N 39°15' W 076°32'0 0.0
2017-Dec-02 01:30N 39°15' W 076°32'0 0.0
2017-Dec-02 01:01N 39°15' W 076°32'0 0.0
2017-Dec-02 00:30N 39°15' W 076°32'0 0.0
2017-Dec-02 00:01N 39°15' W 076°32'0 0.1
2017-Dec-01 23:18N 39°15' W 076°32'1 1.2
2017-Dec-01 22:50N 39°14' W 076°32'3 8.0
2017-Dec-01 22:30N 39°16' W 076°34'0 0.0
2017-Dec-01 22:01N 39°16' W 076°34'0 0.0
2017-Dec-01 21:31N 39°16' W 076°34'0 0.0
2017-Dec-01 21:01N 39°16' W 076°34'0 0.0
2017-Dec-01 20:30N 39°16' W 076°34'0 0.0
2017-Dec-01 20:01N 39°16' W 076°34'0 0.0
2017-Dec-01 19:30N 39°16' W 076°34'0 0.0
2017-Dec-01 19:00N 39°16' W 076°34'0 0.0
2017-Dec-01 18:30N 39°16' W 076°34'1 1.1
2017-Dec-01 18:00N 39°15' W 076°34'1 1.2
2017-Dec-01 17:30N 39°16' W 076°34'0 0.1
2017-Dec-01 17:01N 39°16' W 076°34'  
Track history (hours):
 
Tides and Currents Weather Stations Pressure Air Temp Water Temp Dewpoint Dewpoint Depression Visibility Wind Speed Wind Dir Waves Ship Positions

April Moran

Owner: Moran Towing Corporation, New Canaan, CT. More information available from US FCC via Universal Licensing System and Coast Guard Vessel Documentation Center.

Last reported at 2017-Dec-11 17:00 UTC. Time now 2017-Dec-12 02:52 UTC.
Position N 39°15' W 076°33'.

Length 29 m; draft 3.9 m.

Type: Tug. MMSI: 367139510.

Date/timePositionNaut miles runAvg speedWind from/ knotsBaromVisibWave heightAir tempDewpointWater temp
2017-Dec-11 17:00N 39°15' W 076°33'2 3.2
2017-Dec-11 16:30N 39°13' W 076°35'0 0.0
2017-Dec-11 16:00N 39°13' W 076°35'1 1.0
2017-Dec-11 15:26N 39°13' W 076°34'2 3.8
2017-Dec-11 15:00N 39°13' W 076°32'1 2.3
2017-Dec-11 14:27N 39°14' W 076°32'0 0.0
2017-Dec-11 14:00N 39°14' W 076°32'0 0.0
2017-Dec-11 13:30N 39°14' W 076°32'0 0.0
2017-Dec-11 13:00N 39°14' W 076°32'2 3.5
2017-Dec-11 12:28N 39°13' W 076°34'0 0.5
2017-Dec-11 11:37N 39°13' W 076°35'1 5.4
2017-Dec-11 11:30N 39°13' W 076°34'2 3.6
2017-Dec-11 11:00N 39°14' W 076°32'0 0.0
2017-Dec-11 10:30N 39°14' W 076°32'0 0.0
2017-Dec-11 10:00N 39°14' W 076°32'0 0.0
2017-Dec-11 09:30N 39°14' W 076°32'0 0.0
2017-Dec-11 08:17N 39°14' W 076°32'0 0.0
2017-Dec-11 08:00N 39°14' W 076°32'0 0.0
2017-Dec-11 07:05N 39°14' W 076°32'1 5.5
2017-Dec-11 06:59N 39°14' W 076°33'1 1.8
2017-Dec-11 06:29N 39°15' W 076°32'0 0.1
2017-Dec-11 06:00N 39°15' W 076°32'0 0.0
2017-Dec-11 05:30N 39°15' W 076°32'0 0.0
2017-Dec-11 05:00N 39°15' W 076°32'4 8.0
2017-Dec-11 04:30N 39°12' W 076°29'0 1.0
2017-Dec-11 03:59N 39°12' W 076°29'2 3.4
2017-Dec-11 03:30N 39°11' W 076°28'3 4.0
2017-Dec-11 02:52N 39°12' W 076°31'3 7.7
2017-Dec-11 02:30N 39°14' W 076°33'2 3.9
2017-Dec-11 02:00N 39°16' W 076°34'0 0.0
2017-Dec-11 01:30N 39°16' W 076°34'0 0.0
2017-Dec-11 01:00N 39°16' W 076°34'0 0.0
2017-Dec-11 00:30N 39°16' W 076°34'0 0.0
2017-Dec-11 00:00N 39°16' W 076°34'0 0.0
2017-Dec-10 23:30N 39°16' W 076°34'0 0.0
2017-Dec-10 23:00N 39°16' W 076°34'0 0.0
2017-Dec-10 22:30N 39°16' W 076°34'1 1.3
2017-Dec-10 22:00N 39°15' W 076°34'1 2.8
2017-Dec-10 21:30N 39°15' W 076°32'2 3.2
2017-Dec-10 21:01N 39°13' W 076°32'1 2.0
2017-Dec-10 20:30N 39°14' W 076°32'0 0.6
2017-Dec-10 20:00N 39°14' W 076°32'0 0.0
2017-Dec-10 19:30N 39°14' W 076°32'1 1.4
2017-Dec-10 19:00N 39°15' W 076°32'2 4.3
2017-Dec-10 18:30N 39°13' W 076°32'3 6.6
2017-Dec-10 18:01N 39°16' W 076°34'0 0.7
2017-Dec-10 17:31N 39°16' W 076°34'0 0.0
2017-Dec-10 17:00N 39°16' W 076°34'0 0.0
2017-Dec-10 16:30N 39°16' W 076°34'0 0.0
2017-Dec-10 16:00N 39°16' W 076°34'0 0.0
2017-Dec-10 15:30N 39°16' W 076°34'0 0.0
2017-Dec-10 15:00N 39°16' W 076°34'0 0.0
2017-Dec-10 14:31N 39°16' W 076°34'0 0.0
2017-Dec-10 14:00N 39°16' W 076°34'0 0.0
2017-Dec-10 13:31N 39°16' W 076°34'0 0.0
2017-Dec-10 13:01N 39°16' W 076°34'0 0.0
2017-Dec-10 12:30N 39°16' W 076°34'0 0.0
2017-Dec-10 12:01N 39°16' W 076°34'0 0.0
2017-Dec-10 11:31N 39°16' W 076°34'0 0.0
2017-Dec-10 11:01N 39°16' W 076°34'0 0.0
2017-Dec-10 10:30N 39°16' W 076°34'0 0.0
2017-Dec-10 10:01N 39°16' W 076°34'1 2.4
2017-Dec-10 09:31N 39°15' W 076°33'0 0.2
2017-Dec-10 08:59N 39°15' W 076°33'0 0.0
2017-Dec-10 08:31N 39°15' W 076°33'0 0.2
2017-Dec-10 08:00N 39°15' W 076°33'0 0.0
2017-Dec-10 07:31N 39°15' W 076°33'0 0.0
2017-Dec-10 07:01N 39°15' W 076°33'0 0.0
2017-Dec-10 06:31N 39°15' W 076°33'1 1.6
2017-Dec-10 06:00N 39°15' W 076°34'1 1.1
2017-Dec-10 05:30N 39°15' W 076°34'0 0.7
2017-Dec-10 05:00N 39°15' W 076°34'0 0.7
2017-Dec-10 04:30N 39°16' W 076°34'0 0.4
2017-Dec-10 04:00N 39°15' W 076°34'0 0.0
2017-Dec-10 03:30N 39°15' W 076°34'0 0.0
2017-Dec-10 03:00N 39°15' W 076°34'0 0.0
2017-Dec-10 02:30N 39°15' W 076°34'0 0.0
2017-Dec-10 02:00N 39°15' W 076°34'0 0.0
2017-Dec-10 01:30N 39°15' W 076°34'0 0.0
2017-Dec-10 01:00N 39°15' W 076°34'1 2.7
2017-Dec-10 00:29N 39°14' W 076°33'1 1.2
2017-Dec-09 23:59N 39°15' W 076°32'0 0.7
2017-Dec-09 23:30N 39°15' W 076°33'1 2.8
2017-Dec-09 23:01N 39°16' W 076°34'0 0.0
2017-Dec-09 22:30N 39°16' W 076°34'0 0.0
2017-Dec-09 22:00N 39°16' W 076°34'0 0.0
2017-Dec-09 21:31N 39°16' W 076°34'0 0.0
2017-Dec-09 21:00N 39°16' W 076°34'0 0.0
2017-Dec-09 20:31N 39°16' W 076°34'0 0.0
2017-Dec-09 20:00N 39°16' W 076°34'0 0.0
2017-Dec-09 19:31N 39°16' W 076°34'0 0.0
2017-Dec-09 19:00N 39°16' W 076°34'0 0.0
2017-Dec-09 18:31N 39°16' W 076°34'0 0.0
2017-Dec-09 18:00N 39°16' W 076°34'0 0.0
2017-Dec-09 17:30N 39°16' W 076°34'0 0.2
2017-Dec-09 17:00N 39°16' W 076°34'1 2.8
2017-Dec-09 16:30N 39°15' W 076°33'1 2.0
2017-Dec-09 16:00N 39°14' W 076°33'0 0.4
2017-Dec-09 15:31N 39°14' W 076°33'1 1.4
2017-Dec-09 15:01N 39°15' W 076°32'2 4.0
2017-Dec-09 14:30N 39°13' W 076°31'2 2.4
2017-Dec-09 13:42N 39°13' W 076°29'0 0.6
2017-Dec-09 13:25N 39°13' W 076°29'1 2.4
2017-Dec-09 12:59N 39°12' W 076°29'1 2.5
2017-Dec-09 12:28N 39°11' W 076°27'3 4.6
2017-Dec-09 11:54N 39°12' W 076°30'3 6.5
2017-Dec-09 11:29N 39°14' W 076°32'1 2.4
2017-Dec-09 11:00N 39°15' W 076°33'1 2.7
2017-Dec-09 10:30N 39°14' W 076°33'1 2.3
2017-Dec-09 10:00N 39°13' W 076°32'1 2.3
2017-Dec-09 09:24N 39°14' W 076°32'0 0.0
2017-Dec-09 09:00N 39°14' W 076°32'0 0.0
2017-Dec-09 08:06N 39°14' W 076°32'0 0.0
2017-Dec-09 07:59N 39°14' W 076°32'0 0.0
2017-Dec-09 04:19N 39°14' W 076°32'1 2.7
2017-Dec-09 04:00N 39°14' W 076°33'2 2.7
2017-Dec-09 03:26N 39°13' W 076°35'0 0.3
2017-Dec-09 02:58N 39°13' W 076°35'2 4.2
2017-Dec-09 02:27N 39°13' W 076°32'0 1.0
2017-Dec-09 02:00N 39°13' W 076°32'3 5.9
2017-Dec-09 01:31N 39°16' W 076°34'0 0.0
2017-Dec-09 01:01N 39°16' W 076°34'0 0.0
2017-Dec-09 00:30N 39°16' W 076°34'0 0.0
2017-Dec-09 00:01N 39°16' W 076°34'2 4.1
2017-Dec-08 23:31N 39°14' W 076°33'1 1.9
2017-Dec-08 22:58N 39°15' W 076°32'0 0.2
2017-Dec-08 22:30N 39°15' W 076°32'0 0.0
2017-Dec-08 22:01N 39°15' W 076°32'0 0.0
2017-Dec-08 21:29N 39°15' W 076°32'2 3.5
2017-Dec-08 21:00N 39°16' W 076°34'0 0.0
2017-Dec-08 20:31N 39°16' W 076°34'0 0.0
2017-Dec-08 20:00N 39°16' W 076°34'0 0.6
2017-Dec-08 19:30N 39°16' W 076°34'0 0.0
2017-Dec-08 19:00N 39°16' W 076°34'0 0.0
2017-Dec-08 18:31N 39°16' W 076°34'0 0.0
2017-Dec-08 18:01N 39°16' W 076°34'0 0.0
2017-Dec-08 17:30N 39°16' W 076°34'0 0.0
2017-Dec-08 17:00N 39°16' W 076°34'0 0.0
2017-Dec-08 16:30N 39°16' W 076°34'0 0.0
2017-Dec-08 16:01N 39°16' W 076°34'0 0.0
2017-Dec-08 15:31N 39°16' W 076°34'0 0.0
2017-Dec-08 15:00N 39°16' W 076°34'1 1.8
2017-Dec-08 14:31N 39°15' W 076°34'2 3.2
2017-Dec-08 14:01N 39°14' W 076°32'1 1.6
2017-Dec-08 13:30N 39°13' W 076°32'3 6.3
2017-Dec-08 13:00N 39°16' W 076°34'0 0.4
2017-Dec-08 12:30N 39°16' W 076°34'0 0.0
2017-Dec-08 12:01N 39°16' W 076°34'0 0.0
2017-Dec-08 11:31N 39°16' W 076°34'0 0.0
2017-Dec-08 11:00N 39°16' W 076°34'0 0.0
2017-Dec-08 10:31N 39°16' W 076°34'0 0.0
2017-Dec-08 10:01N 39°16' W 076°34'2 3.1
2017-Dec-08 09:30N 39°15' W 076°33'1 1.4
2017-Dec-08 09:01N 39°14' W 076°33'1 2.8
2017-Dec-08 08:31N 39°13' W 076°32'1 1.0
2017-Dec-08 07:14N 39°14' W 076°32'0 0.0
2017-Dec-08 06:56N 39°14' W 076°32'0 0.0
2017-Dec-08 06:29N 39°14' W 076°32'0 0.0
2017-Dec-08 06:00N 39°14' W 076°32'0 0.0
2017-Dec-08 05:30N 39°14' W 076°32'0 0.0
2017-Dec-08 04:59N 39°14' W 076°32'2 4.0
2017-Dec-08 04:30N 39°16' W 076°34'0 0.2
2017-Dec-08 04:00N 39°15' W 076°34'2 3.3
2017-Dec-08 03:31N 39°14' W 076°33'1 1.4
2017-Dec-08 03:01N 39°14' W 076°32'0 0.0
2017-Dec-08 02:31N 39°14' W 076°32'0 0.0
2017-Dec-08 02:00N 39°14' W 076°32'2 3.6
2017-Dec-08 01:31N 39°15' W 076°34'0 0.3
2017-Dec-08 01:00N 39°15' W 076°34'0 0.2
2017-Dec-08 00:31N 39°15' W 076°34'1 1.3
2017-Dec-08 00:00N 39°16' W 076°34'0 0.0
2017-Dec-07 23:30N 39°16' W 076°34'0 0.0
2017-Dec-07 23:00N 39°16' W 076°34'0 0.0
2017-Dec-07 22:30N 39°16' W 076°34'0 0.0
2017-Dec-07 22:00N 39°16' W 076°34'0 0.0
2017-Dec-07 21:31N 39°16' W 076°34'0 0.0
2017-Dec-07 21:00N 39°16' W 076°34'1 1.2
2017-Dec-07 20:31N 39°15' W 076°34'2 3.9
2017-Dec-07 19:59N 39°13' W 076°35'0 0.1
2017-Dec-07 19:30N 39°13' W 076°35'2 3.6
2017-Dec-07 19:00N 39°13' W 076°32'2 3.5
2017-Dec-07 18:30N 39°13' W 076°34'0 0.3
2017-Dec-07 18:00N 39°13' W 076°34'2 3.4
2017-Dec-07 17:31N 39°14' W 076°32'2 3.9
2017-Dec-07 17:00N 39°15' W 076°34'1 1.7
2017-Dec-07 16:30N 39°16' W 076°34'0 0.3
2017-Dec-07 16:00N 39°16' W 076°34'0 0.0
2017-Dec-07 15:31N 39°16' W 076°34'0 0.0
2017-Dec-07 15:01N 39°16' W 076°34'0 0.0
2017-Dec-07 14:31N 39°16' W 076°34'0 0.0
2017-Dec-07 14:01N 39°16' W 076°34'0 0.0
2017-Dec-07 13:31N 39°16' W 076°34'0 0.0
2017-Dec-07 13:01N 39°16' W 076°34'0 0.0
2017-Dec-07 12:31N 39°16' W 076°34'0 0.0
2017-Dec-07 12:00N 39°16' W 076°34'0 0.0
2017-Dec-07 11:31N 39°16' W 076°34'0 0.0
2017-Dec-07 11:00N 39°16' W 076°34'0 0.0
2017-Dec-07 10:30N 39°16' W 076°34'0 0.0
2017-Dec-07 10:00N 39°16' W 076°34'0 0.0
2017-Dec-07 09:30N 39°16' W 076°34'0 0.0
2017-Dec-07 09:01N 39°16' W 076°34'0 0.0
2017-Dec-07 08:31N 39°16' W 076°34'0 0.0
2017-Dec-07 08:01N 39°16' W 076°34'0 0.0
2017-Dec-07 07:31N 39°16' W 076°34'0 0.0
2017-Dec-07 07:01N 39°16' W 076°34'0 0.0
2017-Dec-07 06:31N 39°16' W 076°34'0 0.0
2017-Dec-07 06:00N 39°16' W 076°34'0 0.0
2017-Dec-07 05:30N 39°16' W 076°34'0 0.0
2017-Dec-07 05:00N 39°16' W 076°34'0 0.0
2017-Dec-07 04:31N 39°16' W 076°34'0 0.0
2017-Dec-07 04:01N 39°16' W 076°34'0 0.0
2017-Dec-07 03:30N 39°16' W 076°34'0 0.0
2017-Dec-07 03:00N 39°16' W 076°34'0 0.0
2017-Dec-07 02:30N 39°16' W 076°34'0 0.0
2017-Dec-07 02:01N 39°16' W 076°34'0 0.0
2017-Dec-07 01:30N 39°16' W 076°34'0 0.0
2017-Dec-07 01:01N 39°16' W 076°34'0 0.0
2017-Dec-07 00:30N 39°16' W 076°34'0 0.0
2017-Dec-07 00:01N 39°16' W 076°34'1 2.0
2017-Dec-06 23:31N 39°15' W 076°34'0 0.9
2017-Dec-06 23:00N 39°15' W 076°34'0 1.0
2017-Dec-06 22:30N 39°15' W 076°34'1 1.9
2017-Dec-06 22:00N 39°16' W 076°34'0 0.0
2017-Dec-06 21:30N 39°16' W 076°34'0 0.0
2017-Dec-06 21:00N 39°16' W 076°34'  
2017-Dec-04 10:30N 39°16' W 076°34'1 2.9
2017-Dec-04 10:00N 39°15' W 076°33'2 3.0
2017-Dec-04 09:30N 39°13' W 076°32'3 6.0
2017-Dec-04 09:00N 39°16' W 076°34'0 0.0
2017-Dec-04 08:30N 39°16' W 076°34'0 0.0
2017-Dec-04 08:00N 39°16' W 076°34'0 0.0
2017-Dec-04 07:27N 39°16' W 076°34'0 0.0
2017-Dec-04 07:00N 39°16' W 076°34'0 0.0
2017-Dec-04 06:30N 39°16' W 076°34'0 0.0
2017-Dec-04 06:00N 39°16' W 076°34'0 0.0
2017-Dec-04 05:30N 39°16' W 076°34'0 0.0
2017-Dec-04 05:00N 39°16' W 076°34'0 0.0
2017-Dec-04 04:30N 39°16' W 076°34'0 0.0
2017-Dec-04 04:00N 39°16' W 076°34'0 0.0
2017-Dec-04 03:30N 39°16' W 076°34'0 0.0
2017-Dec-04 03:00N 39°16' W 076°34'0 0.0
2017-Dec-04 02:30N 39°16' W 076°34'0 0.0
2017-Dec-04 02:00N 39°16' W 076°34'0 0.0
2017-Dec-04 01:30N 39°16' W 076°34'0 0.0
2017-Dec-04 01:00N 39°16' W 076°34'0 0.0
2017-Dec-04 00:30N 39°16' W 076°34'0 0.0
2017-Dec-04 00:00N 39°16' W 076°34'0 0.0
2017-Dec-03 23:30N 39°16' W 076°34'0 0.0
2017-Dec-03 23:00N 39°16' W 076°34'0 0.0
2017-Dec-03 22:30N 39°16' W 076°34'0 0.0
2017-Dec-03 22:00N 39°16' W 076°34'0 0.0
2017-Dec-03 21:30N 39°16' W 076°34'2 3.7
2017-Dec-03 21:00N 39°15' W 076°32'2 3.7
2017-Dec-03 20:30N 39°16' W 076°34'0 0.0
2017-Dec-03 20:00N 39°16' W 076°34'0 0.0
2017-Dec-03 19:30N 39°16' W 076°34'0 0.0
2017-Dec-03 19:00N 39°16' W 076°34'0 0.9
2017-Dec-03 18:30N 39°15' W 076°34'0 0.8
2017-Dec-03 18:00N 39°15' W 076°35'1 2.0
2017-Dec-03 17:30N 39°15' W 076°34'1 1.8
2017-Dec-03 17:00N 39°15' W 076°34'1 1.1
2017-Dec-03 16:30N 39°16' W 076°34'0 0.0
2017-Dec-03 16:00N 39°16' W 076°34'0 0.0
2017-Dec-03 15:30N 39°16' W 076°34'0 0.0
2017-Dec-03 15:00N 39°16' W 076°34'0 0.0
2017-Dec-03 14:30N 39°16' W 076°34'0 0.0
2017-Dec-03 14:00N 39°16' W 076°34'0 0.0
2017-Dec-03 13:30N 39°16' W 076°34'0 0.0
2017-Dec-03 13:00N 39°16' W 076°34'0 0.0
2017-Dec-03 12:30N 39°16' W 076°34'0 0.0
2017-Dec-03 12:00N 39°16' W 076°34'0 0.0
2017-Dec-03 11:30N 39°16' W 076°34'0 0.0
2017-Dec-03 11:00N 39°16' W 076°34'0 0.0
2017-Dec-03 10:30N 39°16' W 076°34'0 0.0
2017-Dec-03 10:00N 39°16' W 076°34'1 2.8
2017-Dec-03 09:30N 39°15' W 076°34'1 1.1
2017-Dec-03 09:00N 39°15' W 076°33'1 1.9
2017-Dec-03 08:30N 39°14' W 076°33'3 5.2
2017-Dec-03 08:00N 39°16' W 076°34'0 0.0
2017-Dec-03 07:30N 39°16' W 076°34'0 0.0
2017-Dec-03 07:00N 39°16' W 076°34'0 0.0
2017-Dec-03 06:30N 39°16' W 076°34'0 0.0
2017-Dec-03 06:00N 39°16' W 076°34'0 0.0
2017-Dec-03 05:30N 39°16' W 076°34'0 0.0
2017-Dec-03 05:00N 39°16' W 076°34'0 0.0
2017-Dec-03 04:30N 39°16' W 076°34'0 0.0
2017-Dec-03 04:00N 39°16' W 076°34'0 0.0
2017-Dec-03 03:30N 39°16' W 076°34'0 0.0
2017-Dec-03 03:00N 39°16' W 076°34'0 0.0
2017-Dec-03 02:30N 39°16' W 076°34'0 0.0
2017-Dec-03 02:00N 39°16' W 076°34'0 0.0
2017-Dec-03 01:30N 39°16' W 076°34'0 0.9
2017-Dec-03 01:00N 39°15' W 076°34'2 3.3
2017-Dec-03 00:31N 39°15' W 076°32'1 1.5
2017-Dec-03 00:00N 39°14' W 076°32'1 1.1
2017-Dec-02 23:30N 39°14' W 076°32'0 0.0
2017-Dec-02 23:00N 39°14' W 076°32'0 0.0
2017-Dec-02 22:30N 39°14' W 076°32'1 2.1
2017-Dec-02 22:00N 39°15' W 076°33'0 0.1
2017-Dec-02 21:30N 39°15' W 076°33'0 0.0
2017-Dec-02 21:00N 39°15' W 076°33'0 0.0
2017-Dec-02 20:30N 39°15' W 076°33'1 2.8
2017-Dec-02 20:00N 39°15' W 076°35'1 2.0
2017-Dec-02 19:30N 39°16' W 076°34'0 0.0
2017-Dec-02 19:00N 39°16' W 076°34'0 0.0
2017-Dec-02 18:30N 39°16' W 076°34'2 3.6
2017-Dec-02 18:01N 39°15' W 076°32'0 0.8
2017-Dec-02 17:30N 39°15' W 076°33'1 1.9
2017-Dec-02 17:00N 39°15' W 076°34'1 1.2
2017-Dec-02 16:30N 39°15' W 076°34'1 2.1
2017-Dec-02 16:00N 39°14' W 076°33'2 4.3
2017-Dec-02 15:31N 39°16' W 076°34'0 0.0
2017-Dec-02 15:00N 39°16' W 076°34'0 0.0
2017-Dec-02 14:31N 39°16' W 076°34'0 0.0
2017-Dec-02 14:00N 39°16' W 076°34'0 0.0
2017-Dec-02 13:30N 39°16' W 076°34'0 0.0
2017-Dec-02 13:00N 39°16' W 076°34'0 0.0
2017-Dec-02 12:31N 39°16' W 076°34'0 0.0
2017-Dec-02 12:00N 39°16' W 076°34'0 0.0
2017-Dec-02 11:30N 39°16' W 076°34'0 0.0
2017-Dec-02 11:00N 39°16' W 076°34'0 0.8
2017-Dec-02 10:31N 39°15' W 076°34'2 3.1
2017-Dec-02 10:00N 39°15' W 076°32'0 0.7
2017-Dec-02 09:25N 39°15' W 076°33'1 2.8
2017-Dec-02 09:00N 39°14' W 076°32'0 0.9
2017-Dec-02 08:31N 39°14' W 076°32'0 0.0
2017-Dec-02 08:00N 39°14' W 076°32'0 0.0
2017-Dec-02 07:30N 39°14' W 076°32'1 2.0
2017-Dec-02 07:00N 39°15' W 076°33'0 0.9
2017-Dec-02 06:28N 39°15' W 076°33'0 0.6
2017-Dec-02 06:01N 39°15' W 076°34'1 2.0
2017-Dec-02 05:30N 39°15' W 076°32'1 2.4
2017-Dec-02 04:57N 39°14' W 076°32'1 2.1
2017-Dec-02 04:30N 39°14' W 076°32'0 0.0
2017-Dec-02 04:00N 39°14' W 076°32'1 1.1
2017-Dec-02 03:30N 39°15' W 076°33'1 3.0
2017-Dec-02 03:00N 39°15' W 076°34'1 1.7
2017-Dec-02 02:31N 39°15' W 076°34'1 1.7
2017-Dec-02 01:58N 39°15' W 076°32'0 0.0
2017-Dec-02 01:30N 39°15' W 076°32'0 0.0
2017-Dec-02 01:01N 39°15' W 076°32'0 0.0
2017-Dec-02 00:30N 39°15' W 076°32'0 0.0
2017-Dec-02 00:01N 39°15' W 076°32'0 0.1
2017-Dec-01 23:18N 39°15' W 076°32'1 1.2
2017-Dec-01 22:50N 39°14' W 076°32'3 8.0
2017-Dec-01 22:30N 39°16' W 076°34'0 0.0
2017-Dec-01 22:01N 39°16' W 076°34'0 0.0
2017-Dec-01 21:31N 39°16' W 076°34'0 0.0
2017-Dec-01 21:01N 39°16' W 076°34'0 0.0
2017-Dec-01 20:30N 39°16' W 076°34'0 0.0
2017-Dec-01 20:01N 39°16' W 076°34'0 0.0
2017-Dec-01 19:30N 39°16' W 076°34'0 0.0
2017-Dec-01 19:00N 39°16' W 076°34'0 0.0
2017-Dec-01 18:30N 39°16' W 076°34'1 1.1
2017-Dec-01 18:00N 39°15' W 076°34'1 1.2
2017-Dec-01 17:30N 39°16' W 076°34'0 0.1
2017-Dec-01 17:01N 39°16' W 076°34'  

Dump ship's entire track history